Latest Weather Observations for Low Isles

IDQ60801

Issued at 9:33 pm EST Monday 25 July 2016 (issued every 30 minutes, with the page automatically refreshed every 10 minutes)

About weather observations | Map of weather stations | Latest weather observations for QLD | Other Formats
Station Details ID: 031037 Name: LOW ISLES LIGHTHOUSE Lat: -16.38 Lon: 145.56 Height: 2.9 m
Data from the previous 72 hours. | See also: Recent months at Low Isles
Date/Time
EST
Temp
°C
App
Temp
°C
Dew
Point
°C
Rel
Hum
%
Delta-T
°C
Wind Press
QNH
hPa
Press
MSL
hPa
Rain since
9am
mm
Dir  Spd
km/h
Gust
km/h
Spd
kts
Gust
kts
25/09:30pm 24.1 22.7 21.2 84 1.9 SSE 30 35 16 19 1015.5 - 0.0
25/09:00pm 24.1 23.5 21.2 84 1.9 SE 26 32 14 17 1015.6 1015.5 0.0
25/08:30pm 24.2 23.5 21.1 83 2.0 SE 26 30 14 16 1015.4 - 0.0
25/08:00pm 24.2 23.8 20.9 82 2.2 SE 24 28 13 15 1015.0 - 0.0
25/07:30pm 24.2 24.3 21.1 83 2.0 SE 22 26 12 14 1014.9 - 0.0
25/07:00pm 24.3 23.7 20.6 80 2.4 SE 24 28 13 15 1014.5 - 0.0
25/06:30pm 24.3 24.8 21.2 83 2.0 SE 20 24 11 13 1014.2 - 0.0
25/06:00pm 24.5 24.9 21.0 81 2.3 SE 20 26 11 14 1014.0 1013.9 0.0
25/05:30pm 24.7 25.0 20.8 79 2.6 ESE 20 26 11 14 1013.9 - 0.0
25/05:00pm 25.1 25.5 21.0 78 2.7 ESE 20 26 11 14 1013.8 - 0.0
25/04:30pm 25.8 25.3 20.8 74 3.3 ESE 24 30 13 16 1013.8 - 0.0
25/04:00pm 26.0 25.9 20.8 73 3.4 SE 22 28 12 15 1013.9 - 0.0
25/03:30pm 26.1 26.0 20.7 72 3.5 SE 22 26 12 14 1013.9 - 0.0
25/03:00pm 26.5 25.9 20.6 70 3.9 SE 24 28 13 15 1014.1 1014.0 0.0
25/02:30pm 26.1 25.7 20.9 73 3.4 SE 24 28 13 15 1014.2 - 0.0
25/02:00pm 26.4 25.9 20.7 71 3.7 SE 24 28 13 15 1014.6 - 0.0
25/01:30pm 25.4 24.6 20.0 72 3.5 SE 24 26 13 14 1014.9 - 0.0
25/01:00pm 25.8 25.0 20.8 74 3.3 SE 26 30 14 16 1015.5 - 0.0
25/12:30pm 25.4 24.1 20.6 75 3.1 SSE 28 32 15 17 1015.7 - 0.0
25/12:00pm 25.1 24.5 20.6 76 2.9 SSE 24 28 13 15 1016.0 1015.9 0.0
25/11:30am 24.9 24.2 20.2 75 3.1 SSE 24 30 13 16 1016.4 - 0.0
25/11:00am 24.7 23.5 20.0 75 3.0 S 26 28 14 15 1016.6 - 0.0
25/10:30am 24.3 23.2 20.2 78 2.7 SSE 26 28 14 15 1016.9 - 0.0
25/10:00am 24.1 23.1 19.6 76 2.9 SSE 24 28 13 15 1016.8 - 0.0
25/09:30am 24.0 23.5 19.9 78 2.6 SSE 22 26 12 14 1016.9 - 0.0
25/09:00am 23.7 22.5 19.2 76 2.9 SSE 24 28 13 15 1016.6 1016.5 0.0
25/08:30am 23.7 22.6 19.4 77 2.7 SSE 24 28 13 15 1016.2 - 0.0
25/08:00am 23.5 22.3 19.2 77 2.7 SSE 24 28 13 15 1016.1 - 0.0
25/07:30am 23.4 22.1 19.1 77 2.7 SSE 24 26 13 14 1015.8 - 0.0
25/07:00am 22.7 22.5 19.3 81 2.2 S 19 22 10 12 1015.4 - 0.0
25/06:30am 22.8 23.1 19.6 82 2.0 S 17 20 9 11 1015.0 - 0.0
25/06:00am 22.7 22.5 19.3 81 2.2 SSW 19 22 10 12 1014.7 1014.6 0.0
25/05:30am 22.8 22.7 19.6 82 2.0 SSW 19 22 10 12 1014.3 - 0.0
25/05:00am 22.9 23.4 20.1 84 1.8 S 17 20 9 11 1014.1 - 0.0
25/04:30am 22.8 23.2 19.8 83 1.9 SSW 17 19 9 10 1014.1 - 0.0
25/04:00am 23.1 23.3 20.1 83 1.9 S 19 22 10 12 1014.1 - 0.0
25/03:30am 23.1 23.3 20.2 84 1.9 S 19 24 10 13 1014.1 - 0.0
25/03:00am 23.1 23.3 20.2 84 1.9 SSW 19 24 10 13 1014.2 1014.1 0.0
25/02:30am 23.2 24.3 20.5 85 1.8 SSW 15 19 8 10 1014.4 - 0.0
25/02:00am 23.4 24.1 20.5 84 1.9 S 17 20 9 11 1014.7 - 0.0
25/01:30am 23.5 24.2 20.4 83 2.0 S 17 19 9 10 1014.9 - 0.0
25/01:00am 23.7 24.5 20.6 83 2.0 S 17 20 9 11 1015.0 - 0.0
25/12:30am 23.5 24.8 20.8 85 1.8 SSW 15 17 8 9 1015.2 - 0.0
25/12:00am 23.3 24.1 20.6 85 1.8 WSW 17 19 9 10 1015.3 1015.2 0.0
 
Date/Time
EST
Temp
°C
App
Temp
°C
Dew
Point
°C
Rel
Hum
%
Delta-T
°C
Wind Press
QNH
hPa
Press
MSL
hPa
Rain since
9am
mm
Dir  Spd
km/h
Gust
km/h
Spd
kts
Gust
kts
24/11:30pm 23.2 23.9 20.5 85 1.8 WSW 17 17 9 9 1015.5 - 0.0
24/11:00pm 23.4 25.4 20.7 85 1.8 SW 11 15 6 8 1015.5 - 0.0
24/10:30pm 23.4 25.7 20.7 85 1.8 SSW 9 13 5 7 1015.7 - 0.0
24/10:00pm 24.1 25.1 21.0 83 2.0 SSE 17 20 9 11 1015.7 - 0.0
24/09:30pm 23.1 23.7 19.5 80 2.3 ESE 15 17 8 9 1015.6 - 0.0
24/09:00pm 23.3 24.0 19.7 80 2.3 ESE 15 17 8 9 1015.4 1015.3 0.0
24/08:30pm 23.8 24.6 19.9 79 2.5 SE 15 19 8 10 1015.2 - 0.0
24/08:00pm 23.7 23.9 19.4 77 2.7 ESE 17 20 9 11 1014.9 - 0.0
24/07:30pm 23.8 24.1 19.7 78 2.6 ESE 17 20 9 11 1014.6 - 0.0
24/07:00pm 23.6 23.5 19.5 78 2.6 ESE 19 22 10 12 1014.3 - 0.0
24/06:30pm 23.8 23.7 19.5 77 2.8 ESE 19 24 10 13 1013.9 - 0.0
24/06:00pm 24.1 24.4 19.6 76 2.9 ESE 17 20 9 11 1013.7 1013.6 0.0
24/05:30pm 24.7 25.5 19.8 74 3.2 ESE 15 19 8 10 1013.6 - 0.0
24/05:00pm 25.0 23.7 19.1 70 3.8 ESE 24 28 13 15 1013.4 - 0.0
24/04:30pm 26.1 25.8 19.2 65 4.4 ESE 19 24 10 13 1013.2 - 0.0
24/04:00pm 26.7 27.1 19.8 66 4.5 SE 17 20 9 11 1012.9 - 0.0
24/03:30pm 26.3 25.7 18.9 63 4.7 SE 20 24 11 13 1013.0 - 0.0
24/03:00pm 26.8 26.4 20.2 67 4.3 SE 22 28 12 15 1013.3 1013.2 0.0
24/02:30pm 26.7 27.0 20.3 68 4.2 SE 19 24 10 13 1013.6 - 0.0
24/02:00pm 26.2 27.0 19.8 68 4.2 SE 15 19 8 10 1013.9 - 0.0
24/01:30pm 25.6 25.6 19.7 70 3.8 SSE 19 20 10 11 1014.5 - 0.0
24/01:00pm 25.7 25.7 19.8 70 3.8 SSE 19 20 10 11 1014.9 - 0.0
24/12:30pm 25.6 25.7 19.9 70 3.7 SSE 19 20 10 11 1015.0 - 0.0
24/12:00pm 25.3 25.2 19.9 72 3.5 SSE 20 24 11 13 1015.5 1015.4 0.0
24/11:30am 25.3 25.3 20.1 73 3.4 SSE 20 26 11 14 1015.9 - 0.0
24/11:00am 25.3 25.6 20.3 74 3.3 SSE 19 20 10 11 1016.0 - 0.0
24/10:30am 24.5 24.2 19.6 74 3.2 SSE 20 22 11 12 1016.0 - 0.0
24/10:00am 24.4 24.5 20.3 78 2.7 SSE 20 24 11 13 1016.2 - 0.0
24/09:30am 24.0 23.2 20.1 79 2.5 SSE 24 28 13 15 1016.0 - 0.0
24/09:00am 23.9 23.1 20.0 79 2.5 SSE 24 28 13 15 1015.7 1015.6 0.0
24/08:30am 23.8 22.3 20.3 81 2.3 SSE 28 32 15 17 1015.4 - 0.0
24/08:00am 23.6 21.9 19.9 80 2.4 SSE 28 30 15 16 1015.0 - 0.0
24/07:30am 23.6 22.5 20.3 82 2.1 SSE 26 28 14 15 1014.7 - 0.0
24/07:00am 23.5 23.1 20.2 82 2.1 SSE 22 26 12 14 1014.5 - 0.0
24/06:30am 23.4 23.1 20.3 83 2.0 SSE 22 24 12 13 1014.1 - 0.0
24/06:00am 23.5 22.8 20.2 82 2.1 SSE 24 28 13 15 1013.9 1013.8 0.0
24/05:30am 23.6 23.3 20.3 82 2.1 SSE 22 24 12 13 1013.6 - 0.0
24/05:00am 23.6 23.7 20.3 82 2.1 S 20 22 11 12 1013.4 - 0.0
24/04:30am 23.6 23.9 20.3 82 2.1 S 19 20 10 11 1013.2 - 0.0
24/04:00am 23.5 24.2 20.4 83 2.0 S 17 22 9 12 1013.3 - 0.0
24/03:30am 23.6 23.8 20.5 83 2.0 S 20 24 11 13 1013.3 - 0.0
24/03:00am 23.7 24.0 20.4 82 2.1 SSE 19 22 10 12 1013.4 1013.3 0.0
24/02:30am 23.4 24.8 20.3 83 2.0 S 13 15 7 8 1013.6 - 0.0
24/02:00am 23.6 25.1 20.5 83 2.0 S 13 15 7 8 1013.7 - 0.0
24/01:30am 23.4 24.4 20.3 83 2.0 SW 15 17 8 9 1013.9 - 0.0
24/01:00am 23.4 24.0 20.3 83 2.0 SSW 17 20 9 11 1014.0 - 0.0
24/12:30am 23.5 23.9 20.6 84 1.9 SSW 19 20 10 11 1013.9 - 0.0
24/12:00am 23.6 24.5 20.9 85 1.8 SSW 17 20 9 11 1014.1 1014.0 0.0
 
Date/Time
EST
Temp
°C
App
Temp
°C
Dew
Point
°C
Rel
Hum
%
Delta-T
°C
Wind Press
QNH
hPa
Press
MSL
hPa
Rain since
9am
mm
Dir  Spd
km/h
Gust
km/h
Spd
kts
Gust
kts
23/11:30pm 23.8 24.1 20.7 83 2.0 S 20 24 11 13 1014.2 - 0.0
23/11:00pm 23.8 24.2 20.7 83 2.0 SSE 19 22 10 12 1014.2 - 0.0
23/10:30pm 23.9 24.5 21.4 86 1.6 SSE 20 24 11 13 1014.3 - 0.0
23/10:00pm 24.1 24.8 21.6 86 1.7 SSE 20 20 11 11 1014.3 - 0.0
23/09:30pm 24.0 25.0 21.7 87 1.5 SSE 19 20 10 11 1014.1 - 0.0
23/09:00pm 24.0 25.2 21.5 86 1.7 SSE 17 19 9 10 1013.9 1013.8 0.0
23/08:30pm 24.1 25.5 21.8 87 1.5 SSE 17 19 9 10 1013.6 - 0.0
23/08:00pm 24.2 25.5 21.7 86 1.7 SE 17 20 9 11 1013.3 - 0.0
23/07:30pm 24.1 24.6 20.8 82 2.2 SE 19 22 10 12 1013.1 - 0.0
23/07:00pm 24.2 24.8 21.1 83 2.0 ESE 19 20 10 11 1012.9 - 0.0
23/06:30pm 24.0 25.2 20.7 82 2.2 ESE 15 19 8 10 1012.7 - 0.0
23/06:00pm 24.3 25.4 20.4 79 2.5 ESE 15 19 8 10 1012.6 1012.5 0.0
23/05:30pm 24.7 26.2 20.6 78 2.7 ESE 13 19 7 10 1012.4 - 0.0
23/05:00pm 25.4 26.3 20.9 76 3.0 ESE 17 20 9 11 1012.0 - 0.0
23/04:30pm 26.0 26.8 20.6 72 3.5 SE 17 20 9 11 1011.8 - 0.0
23/04:00pm 26.8 27.8 21.1 71 3.8 ESE 17 20 9 11 1011.8 - 0.0
23/03:30pm 26.8 27.6 20.6 69 4.1 ESE 17 20 9 11 1011.9 - 0.0
23/03:00pm 27.0 27.4 20.6 68 4.2 ESE 19 24 10 13 1012.0 1011.9 0.0
23/02:30pm 26.6 27.2 21.1 72 3.6 SE 19 22 10 12 1012.3 - 0.0
23/02:00pm 25.9 26.8 20.9 74 3.3 SE 17 20 9 11 1012.7 - 0.0
23/01:30pm 25.7 26.3 20.3 72 3.5 SSE 17 20 9 11 1013.1 - 0.0
23/01:00pm 25.6 26.4 20.6 74 3.3 SSE 17 19 9 10 1013.5 - 0.0
23/12:30pm 25.2 25.2 19.8 72 3.5 SSE 19 20 10 11 1013.9 - 0.0
23/12:00pm 24.7 25.1 19.8 74 3.2 SSE 17 19 9 10 1014.2 1014.1 0.0
23/11:30am 25.1 26.2 19.7 72 3.5 SSE 13 15 7 8 1014.4 - 0.0
23/11:00am 24.5 25.0 19.3 73 3.3 S 15 17 8 9 1014.8 - 0.0
23/10:30am 24.7 26.1 20.4 77 2.8 SSW 13 15 7 8 1015.1 - 0.0
23/10:00am 23.6 25.6 19.9 80 2.4 SW 9 11 5 6 1015.3 - 0.0
23/09:30am 22.9 24.3 19.5 81 2.2 SW 11 15 6 8 1015.3 - 0.0
23/09:00am 23.0 24.4 20.3 85 1.7 SW 13 15 7 8 1015.3 1015.2 0.0
23/08:30am 22.6 23.8 19.9 85 1.7 WSW 13 17 7 9 1015.1 - 0.0
23/08:00am 22.5 23.3 19.9 85 1.7 SW 15 17 8 9 1014.9 - 0.0
23/07:30am 22.2 23.6 19.6 85 1.7 SW 11 13 6 7 1014.6 - 0.0
23/07:00am 22.4 23.6 19.9 86 1.6 SW 13 17 7 9 1014.3 - 0.0
23/06:30am 22.5 23.2 19.7 84 1.8 SW 15 17 8 9 1014.1 - 0.0
23/06:00am 22.3 23.6 19.3 83 1.9 SW 11 13 6 7 1013.9 1013.8 0.0
23/05:30am 22.2 23.5 19.2 83 1.9 SSW 11 13 6 7 1013.4 - 0.0
23/05:00am 22.4 23.6 19.8 85 1.7 SW 13 15 7 8 1013.3 - 0.0
23/04:30am 22.3 22.8 20.0 87 1.5 SW 17 19 9 10 1013.2 - 0.0
23/04:00am 22.7 23.3 20.2 86 1.6 SW 17 20 9 11 1013.2 - 0.0
23/03:30am 22.8 23.2 19.8 83 1.9 SSW 17 20 9 11 1013.2 - 0.0
23/03:00am 22.8 23.6 19.8 83 1.9 SW 15 17 8 9 1013.4 1013.3 0.0
23/02:30am 22.7 23.0 19.7 83 1.9 SSW 17 24 9 13 1013.5 - 0.0
23/02:00am 22.8 23.3 20.0 84 1.8 SSW 17 22 9 12 1013.5 - 0.0
23/01:30am 23.2 22.4 20.0 82 2.1 S 24 28 13 15 1013.8 - 0.0
23/01:00am 23.2 23.4 20.5 85 1.8 S 20 24 11 13 1014.1 - 0.0
23/12:30am 23.2 23.3 20.3 84 1.9 S 20 24 11 13 1014.4 - 0.0
23/12:00am 23.3 23.4 20.4 84 1.9 SSE 20 22 11 12 1014.6 1014.5 0.0
 
Date/Time
EST
Temp
°C
App
Temp
°C
Dew
Point
°C
Rel
Hum
%
Delta-T
°C
Wind Press
QNH
hPa
Press
MSL
hPa
Rain since
9am
mm
Dir  Spd
km/h
Gust
km/h
Spd
kts
Gust
kts
22/11:30pm 23.5 23.8 20.8 85 1.8 SSE 20 24 11 13 1014.6 - 0.0
22/11:00pm 23.2 24.6 20.3 84 1.9 S 13 20 7 11 1014.7 - 0.0
22/10:30pm 23.8 24.3 20.9 84 1.9 SSE 19 24 10 13 1014.5 - 0.0
22/10:00pm 23.7 24.3 20.2 81 2.3 S 17 20 9 11 1014.4 - 0.0

Other Formats:

Comma delimited format used in spreadsheet applications
http://www.bom.gov.au/fwo/IDQ60801/IDQ60801.94285.axf

JavaScript Object Notation format (JSON) in row-major order
http://www.bom.gov.au/fwo/IDQ60801/IDQ60801.94285.json